Time;durP1;ratioP1;P1;durP2;ratioP2;P2;SDS_P1;SDS_P2;PMS_P1;PMS_P2;Temp;Humidity;BMP_temperature;BMP_pressure;BME280_temperature;BME280_humidity;BME280_pressure;Samples;Min_cycle;Max_cycle;Signal;HPM_P1;HPM_P2
2021/09/03 00:01:32;;;;;;;9.10;4.40;;;;;;;7.80;83.15;101095.84;95301;1180;97334;-61
2021/09/03 00:03:40;;;;;;;7.30;3.90;;;;;;;7.78;83.27;101098.90;95289;1180;87073;-61
2021/09/03 00:05:47;;;;;;;8.70;4.80;;;;;;;7.76;83.21;101098.90;95270;1180;94608;-61
2021/09/03 00:08:04;;;;;;;7.50;4.40;;;;;;;7.75;83.23;101104.20;95284;1181;80253;-61
2021/09/03 00:10:19;;;;;;;7.40;4.50;;;;;;;7.71;83.19;101100.42;95295;1180;79555;-63
2021/09/03 00:12:26;;;;;;;7.90;4.60;;;;;;;7.68;83.27;101092.70;95295;1180;99063;-63
2021/09/03 00:14:35;;;;;;;7.50;4.90;;;;;;;7.67;83.20;101088.52;95270;1180;87457;-63
2021/09/03 00:16:43;;;;;;;9.90;4.80;;;;;;;7.66;83.30;101083.77;95253;1180;93811;-63
2021/09/03 00:18:51;;;;;;;7.00;4.70;;;;;;;7.66;83.34;101079.43;95253;1180;78913;-61
2021/09/03 00:21:01;;;;;;;8.90;4.80;;;;;;;7.65;83.46;101077.18;95284;1180;82342;-61
2021/09/03 00:23:09;;;;;;;6.30;4.50;;;;;;;7.65;83.37;101076.38;95258;1180;97893;-63
2021/09/03 00:25:17;;;;;;;7.90;4.80;;;;;;;7.65;83.57;101076.88;95272;1180;85842;-63
2021/09/03 00:27:24;;;;;;;8.90;4.90;;;;;;;7.65;83.61;101081.04;95314;1180;93632;-63
2021/09/03 00:29:32;;;;;;;8.40;4.70;;;;;;;7.66;83.62;101081.48;95291;1180;78507;-63
2021/09/03 00:31:40;;;;;;;6.80;4.70;;;;;;;7.64;83.74;101084.13;95328;1180;81287;-64
2021/09/03 00:33:47;;;;;;;8.70;5.00;;;;;;;7.60;83.71;101088.02;95237;1180;98691;-61
2021/09/03 00:35:55;;;;;;;10.00;5.50;;;;;;;7.58;83.73;101084.03;95288;1180;86093;-61
2021/09/03 00:38:02;;;;;;;8.60;4.90;;;;;;;7.57;83.83;101083.11;95267;1180;94420;-61
2021/09/03 00:40:12;;;;;;;8.20;5.30;;;;;;;7.55;83.91;101081.52;95285;1180;78438;-62
2021/09/03 00:42:19;;;;;;;7.90;4.80;;;;;;;7.54;83.81;101081.38;95296;1181;81962;-61
2021/09/03 00:44:27;;;;;;;7.70;5.30;;;;;;;7.52;83.74;101074.40;95245;1180;98214;-61
2021/09/03 00:46:34;;;;;;;11.40;5.80;;;;;;;7.50;83.88;101074.34;95292;1180;87679;-61
2021/09/03 00:48:42;;;;;;;7.60;4.80;;;;;;;7.47;83.68;101076.73;95259;1180;93153;-63
2021/09/03 00:50:50;;;;;;;9.30;5.70;;;;;;;7.47;83.72;101078.41;95275;1180;80040;-63
2021/09/03 00:52:58;;;;;;;8.50;4.70;;;;;;;7.47;83.73;101072.86;95281;1180;80025;-63
2021/09/03 00:55:08;;;;;;;8.60;4.80;;;;;;;7.46;83.89;101075.65;95272;1181;97515;-61
2021/09/03 00:57:19;;;;;;;9.50;5.70;;;;;;;7.43;83.94;101072.69;95280;1180;88792;-61
2021/09/03 00:59:27;;;;;;;8.20;5.60;;;;;;;7.40;83.81;101071.73;95243;1180;94112;-61
2021/09/03 01:01:35;;;;;;;8.70;5.00;;;;;;;7.39;83.81;101070.95;95251;1180;80138;-61
2021/09/03 01:03:42;;;;;;;11.10;5.30;;;;;;;7.38;83.78;101071.60;95243;1181;80663;-61
2021/09/03 01:05:51;;;;;;;9.00;4.80;;;;;;;7.37;83.82;101066.81;95272;1180;97049;-61
2021/09/03 01:07:58;;;;;;;8.40;4.70;;;;;;;7.36;83.96;101067.13;95286;1180;87241;-62
2021/09/03 01:10:08;;;;;;;8.40;5.00;;;;;;;7.35;84.03;101065.02;95286;1180;94627;-64
2021/09/03 01:12:17;;;;;;;7.00;4.80;;;;;;;7.33;84.03;101068.09;95309;1180;81711;-63
2021/09/03 01:14:25;;;;;;;9.70;5.20;;;;;;;7.31;84.11;101067.79;95295;1180;81934;-63
2021/09/03 01:16:33;;;;;;;8.20;5.00;;;;;;;7.32;84.06;101069.52;95271;1181;98406;-64
2021/09/03 01:18:44;;;;;;;7.40;4.70;;;;;;;7.34;84.16;101075.76;95288;1180;88159;-64
2021/09/03 01:20:51;;;;;;;7.40;4.60;;;;;;;7.34;84.16;101070.58;95285;1180;94163;-63
2021/09/03 01:22:59;;;;;;;8.50;5.20;;;;;;;7.32;84.27;101061.06;95260;1180;79124;-62
2021/09/03 01:25:10;;;;;;;7.80;5.20;;;;;;;7.31;84.24;101058.98;95261;1180;82232;-63
2021/09/03 01:27:17;;;;;;;8.80;4.60;;;;;;;7.31;84.23;101054.91;95298;1180;99938;-63
2021/09/03 01:29:28;;;;;;;9.40;5.40;;;;;;;7.31;84.23;101056.54;95309;1180;85773;-64
2021/09/03 01:31:39;;;;;;;7.90;4.70;;;;;;;7.29;84.34;101054.58;95261;1181;93454;-64
2021/09/03 01:33:47;;;;;;;8.90;5.20;;;;;;;7.27;84.34;101050.63;95273;1180;79750;-63
2021/09/03 01:35:58;;;;;;;10.80;4.80;;;;;;;7.27;84.39;101047.98;95272;1180;82295;-63
2021/09/03 01:38:06;;;;;;;9.80;5.10;;;;;;;7.30;84.48;101046.73;95253;1180;98971;-63
2021/09/03 01:40:15;;;;;;;8.70;4.50;;;;;;;7.35;84.51;101041.40;95275;1181;88448;-63
2021/09/03 01:42:23;;;;;;;8.30;5.40;;;;;;;7.37;84.52;101037.05;95261;1180;94642;-64
2021/09/03 01:44:30;;;;;;;6.30;4.10;;;;;;;7.41;84.53;101042.20;95281;1180;78890;-63
2021/09/03 01:46:38;;;;;;;7.80;5.30;;;;;;;7.43;84.49;101038.95;95272;1180;81016;-63
2021/09/03 01:48:46;;;;;;;9.30;4.80;;;;;;;7.43;84.48;101038.26;95244;1180;98494;-62
2021/09/03 01:50:54;;;;;;;6.90;4.50;;;;;;;7.42;84.54;101034.25;95272;1180;87598;-61
2021/09/03 01:53:01;;;;;;;7.90;4.50;;;;;;;7.41;84.41;101034.85;95282;1180;93291;-62
2021/09/03 01:55:11;;;;;;;7.50;4.60;;;;;;;7.42;84.41;101033.55;95273;1180;80018;-63
2021/09/03 01:57:19;;;;;;;8.30;5.10;;;;;;;7.39;84.44;101031.15;95311;1180;80408;-63
2021/09/03 01:59:27;;;;;;;8.80;4.60;;;;;;;7.33;84.60;101026.23;95304;1180;97640;-61
2021/09/03 02:01:37;;;;;;;7.20;4.50;;;;;;;7.29;84.56;101026.27;95286;1180;88782;-61
2021/09/03 02:03:45;;;;;;;8.10;4.50;;;;;;;7.24;84.56;101023.14;95289;1180;93740;-61
2021/09/03 02:05:52;;;;;;;9.90;4.50;;;;;;;7.23;84.51;101023.17;95276;1180;80280;-61
2021/09/03 02:08:05;;;;;;;8.00;4.80;;;;;;;7.22;84.52;101015.91;95315;1180;80533;-63
2021/09/03 02:10:15;;;;;;;6.70;5.00;;;;;;;7.22;84.54;101014.30;95297;1180;99656;-61
2021/09/03 02:12:22;;;;;;;13.80;5.40;;;;;;;7.22;84.54;101012.65;95275;1180;87731;-61
2021/09/03 02:14:30;;;;;;;8.80;4.60;;;;;;;7.21;84.47;101013.45;95274;1180;94060;-61
2021/09/03 02:16:38;;;;;;;9.00;5.50;;;;;;;7.19;84.44;101012.42;95288;1180;79815;-61
2021/09/03 02:18:45;;;;;;;7.80;5.10;;;;;;;7.15;84.62;101011.88;95286;1181;80429;-61
2021/09/03 02:20:53;;;;;;;8.00;5.30;;;;;;;7.15;84.55;101009.05;95268;1180;97593;-61
2021/09/03 02:23:00;;;;;;;8.30;5.00;;;;;;;7.14;84.54;101009.45;95260;1180;87750;-63
2021/09/03 02:25:10;;;;;;;9.40;5.30;;;;;;;7.16;84.47;101006.84;95308;1180;94395;-63
2021/09/03 02:27:17;;;;;;;9.10;5.10;;;;;;;7.15;84.56;101003.48;95331;1180;78559;-64
2021/09/03 02:29:25;;;;;;;10.50;5.50;;;;;;;7.12;84.63;101000.33;95358;1180;79381;-62
2021/09/03 02:31:35;;;;;;;8.70;4.30;;;;;;;7.15;84.41;100995.83;95321;1180;97605;-61
2021/09/03 02:33:43;;;;;;;9.40;5.40;;;;;;;7.11;84.49;100996.38;95317;1180;87562;-63
2021/09/03 02:35:50;;;;;;;11.80;5.40;;;;;;;7.08;84.58;100989.97;95301;1180;93354;-63
2021/09/03 02:37:58;;;;;;;9.80;6.30;;;;;;;7.08;84.58;100988.06;95274;1180;78231;-62
2021/09/03 02:40:08;;;;;;;8.10;4.60;;;;;;;7.10;84.50;100985.02;95339;1180;81657;-61
2021/09/03 02:42:16;;;;;;;8.50;5.30;;;;;;;7.08;84.46;100988.73;95353;1180;98463;-61
2021/09/03 02:44:24;;;;;;;9.10;5.50;;;;;;;7.05;84.65;100990.34;95320;1180;86643;-61
2021/09/03 02:46:31;;;;;;;9.40;5.60;;;;;;;7.01;84.62;100984.32;95309;1180;93122;-61
2021/09/03 02:48:39;;;;;;;9.50;5.10;;;;;;;7.01;84.62;100982.37;95317;1180;79974;-61
2021/09/03 02:50:47;;;;;;;9.70;5.50;;;;;;;7.00;84.73;100983.38;95324;1180;80511;-61
2021/09/03 02:52:55;;;;;;;6.60;5.30;;;;;;;7.03;84.81;100979.45;95311;1180;98148;-61
2021/09/03 02:55:04;;;;;;;7.10;5.20;;;;;;;7.02;84.74;100984.40;95321;1180;87903;-61
2021/09/03 02:57:11;;;;;;;9.70;5.30;;;;;;;7.01;84.73;100977.27;95275;1180;94543;-61
2021/09/03 02:59:22;;;;;;;9.40;5.30;;;;;;;7.00;84.82;100975.42;95292;1180;79679;-64
2021/09/03 03:01:30;;;;;;;10.90;6.00;;;;;;;6.98;84.90;100976.00;95298;1180;81115;-64
2021/09/03 03:03:37;;;;;;;8.90;5.40;;;;;;;6.99;84.77;100971.27;95312;1180;97580;-61
2021/09/03 03:05:46;;;;;;;9.80;6.00;;;;;;;6.97;84.87;100969.84;95345;1180;86556;-61
2021/09/03 03:07:54;;;;;;;9.20;5.40;;;;;;;6.97;84.84;100966.20;95267;1180;93113;-61
2021/09/03 03:10:02;;;;;;;9.10;5.60;;;;;;;7.00;84.89;100966.34;95355;1180;80427;-61
2021/09/03 03:12:14;;;;;;;9.00;6.10;;;;;;;7.06;85.05;100961.55;95320;1180;80476;-61
2021/09/03 03:14:28;;;;;;;11.50;6.60;;;;;;;7.17;85.15;100954.92;95321;1180;98437;-63
2021/09/03 03:16:36;;;;;;;9.30;6.40;;;;;;;7.30;85.31;100954.17;95309;1180;87647;-63
2021/09/03 03:18:46;;;;;;;12.60;7.20;;;;;;;7.41;85.37;100948.66;95304;1180;93706;-63
2021/09/03 03:20:55;;;;;;;11.60;7.40;;;;;;;7.50;85.38;100949.34;95298;1180;79660;-63
2021/09/03 03:23:03;;;;;;;10.60;6.40;;;;;;;7.55;85.40;100950.88;95338;1180;80804;-62
2021/09/03 03:25:12;;;;;;;12.10;6.80;;;;;;;7.59;85.32;100949.69;95335;1180;98488;-61
2021/09/03 03:27:22;;;;;;;10.70;7.30;;;;;;;7.66;85.40;100945.59;95334;1180;86897;-61
2021/09/03 03:29:30;;;;;;;11.70;7.00;;;;;;;7.74;85.49;100940.08;95308;1180;94190;-61
2021/09/03 03:31:38;;;;;;;12.70;7.00;;;;;;;7.82;85.51;100938.38;95246;1180;80406;-61
2021/09/03 03:33:46;;;;;;;12.20;7.00;;;;;;;7.88;85.54;100934.20;95311;1180;81470;-63
2021/09/03 03:35:56;;;;;;;11.60;7.80;;;;;;;7.91;85.36;100931.75;95321;1180;97842;-63
2021/09/03 03:38:06;;;;;;;10.40;7.00;;;;;;;7.95;85.47;100925.38;95322;1180;87201;-63
2021/09/03 03:40:16;;;;;;;12.40;7.40;;;;;;;7.98;85.48;100922.73;95296;1180;93947;-63
2021/09/03 03:42:24;;;;;;;11.40;6.80;;;;;;;7.99;85.43;100918.64;95303;1180;80088;-63
2021/09/03 03:44:31;;;;;;;11.40;7.10;;;;;;;8.02;85.48;100921.25;95294;1180;80763;-64
2021/09/03 03:46:39;;;;;;;12.60;7.40;;;;;;;8.05;85.29;100917.98;95322;1180;98160;-63
2021/09/03 03:48:46;;;;;;;13.10;7.00;;;;;;;8.09;85.35;100917.20;95295;1180;86809;-61
2021/09/03 03:50:54;;;;;;;12.80;7.40;;;;;;;8.09;85.38;100913.41;95333;1180;92935;-61
2021/09/03 03:53:02;;;;;;;9.50;7.00;;;;;;;8.11;85.33;100911.77;95291;1180;81136;-61
2021/09/03 03:55:11;;;;;;;14.20;7.60;;;;;;;8.14;85.39;100914.71;95355;1180;82002;-61
2021/09/03 03:57:22;;;;;;;11.00;6.70;;;;;;;8.16;85.42;100919.65;95285;1180;97070;-61
2021/09/03 03:59:32;;;;;;;11.70;7.20;;;;;;;8.18;85.31;100916.66;95341;1180;88321;-61
2021/09/03 04:01:39;;;;;;;12.40;7.10;;;;;;;8.18;85.19;100914.23;95309;1180;92902;-61
2021/09/03 04:03:47;;;;;;;12.60;7.40;;;;;;;8.21;85.27;100916.30;95306;1180;79645;-63
2021/09/03 04:05:54;;;;;;;11.50;7.30;;;;;;;8.23;85.29;100913.44;95358;1180;81722;-63
2021/09/03 04:08:02;;;;;;;12.30;7.20;;;;;;;8.25;85.28;100912.65;95278;1180;99414;-63
2021/09/03 04:10:14;;;;;;;12.40;7.00;;;;;;;8.28;85.13;100908.61;95328;1180;86727;-63
2021/09/03 04:12:21;;;;;;;11.60;7.20;;;;;;;8.29;85.18;100906.42;95292;1180;94160;-64
2021/09/03 04:14:29;;;;;;;10.10;7.20;;;;;;;8.32;85.25;100900.63;95312;1180;79619;-63
2021/09/03 04:16:37;;;;;;;11.80;7.20;;;;;;;8.35;85.24;100898.11;95307;1180;82075;-63
2021/09/03 04:18:48;;;;;;;12.30;7.40;;;;;;;8.39;85.26;100898.83;95313;1180;97353;-64
2021/09/03 04:20:55;;;;;;;12.60;7.30;;;;;;;8.44;85.26;100894.98;95293;1180;88081;-64
2021/09/03 04:23:03;;;;;;;11.10;7.80;;;;;;;8.49;85.12;100892.30;95301;1180;95250;-64
2021/09/03 04:25:13;;;;;;;11.90;7.50;;;;;;;8.57;85.40;100889.46;95316;1180;78245;-64
2021/09/03 04:27:24;;;;;;;11.00;7.60;;;;;;;8.69;85.45;100882.96;95365;1180;82583;-64
2021/09/03 04:29:31;;;;;;;13.20;8.20;;;;;;;8.77;85.47;100877.89;95300;1180;98148;-61
2021/09/03 04:31:39;;;;;;;14.10;8.00;;;;;;;8.85;85.41;100877.03;95302;1180;87840;-61
2021/09/03 04:33:46;;;;;;;13.90;7.70;;;;;;;8.95;85.26;100871.88;95314;1180;93766;-61
2021/09/03 04:35:54;;;;;;;11.10;7.00;;;;;;;9.05;85.19;100870.01;95324;1180;79044;-61
2021/09/03 04:38:01;;;;;;;11.40;7.40;;;;;;;9.20;85.27;100868.58;95293;1180;81409;-62
2021/09/03 04:40:12;;;;;;;10.60;7.60;;;;;;;9.51;85.16;100861.23;95337;1180;97318;-61
2021/09/03 04:42:20;;;;;;;11.30;8.00;;;;;;;10.02;85.13;100862.70;95324;1180;88108;-61
2021/09/03 04:44:31;;;;;;;15.00;7.60;;;;;;;10.77;85.26;100860.63;95294;1180;94044;-61
2021/09/03 04:46:41;;;;;;;11.40;7.70;;;;;;;11.77;84.97;100866.64;95298;1180;80336;-61
2021/09/03 04:48:49;;;;;;;10.80;7.60;;;;;;;11.93;83.38;100867.86;95330;1180;81636;-64
2021/09/03 04:50:56;;;;;;;11.30;6.90;;;;;;;11.64;82.81;100869.40;95312;1180;98887;-64
2021/09/03 04:53:04;;;;;;;12.60;7.10;;;;;;;11.34;82.68;100868.53;95346;1180;87728;-62
2021/09/03 04:55:15;;;;;;;10.90;7.20;;;;;;;11.13;82.64;100864.80;95318;1180;94284;-60
2021/09/03 04:57:23;;;;;;;12.40;7.60;;;;;;;10.94;82.62;100864.01;95291;1180;79454;-73
2021/09/03 04:59:30;;;;;;;10.90;7.10;;;;;;;10.86;82.53;100865.48;95376;1180;80844;-69
2021/09/03 05:01:38;;;;;;;11.40;7.20;;;;;;;10.77;82.60;100863.08;95315;1180;98149;-69
2021/09/03 05:03:47;;;;;;;9.90;7.20;;;;;;;10.75;82.76;100863.90;95340;1180;87969;-71
2021/09/03 05:05:55;;;;;;;10.10;6.80;;;;;;;10.79;82.80;100863.03;95350;1180;93965;-70
2021/09/03 05:08:03;;;;;;;13.10;7.60;;;;;;;10.81;82.83;100861.70;95328;1180;79559;-72
2021/09/03 05:10:15;;;;;;;10.30;7.20;;;;;;;10.83;82.95;100864.68;95346;1180;81853;-69
2021/09/03 05:12:22;;;;;;;15.00;7.20;;;;;;;10.87;82.96;100864.80;95306;1180;98730;-60
2021/09/03 05:14:33;;;;;;;12.10;7.40;;;;;;;10.92;82.91;100866.75;95302;1180;87565;-65
2021/09/03 05:16:41;;;;;;;12.50;7.50;;;;;;;10.94;82.97;100864.13;95289;1180;93427;-65
2021/09/03 05:18:48;;;;;;;10.40;7.20;;;;;;;11.02;83.04;100861.04;95314;1180;78618;-60
2021/09/03 05:20:57;;;;;;;11.90;7.80;;;;;;;11.14;83.09;100859.02;95266;1180;80156;-60
2021/09/03 05:23:05;;;;;;;10.80;6.90;;;;;;;11.84;83.43;100856.46;95334;1180;99406;-64
2021/09/03 05:25:14;;;;;;;11.10;7.50;;;;;;;13.33;83.30;100848.15;95324;1180;85979;-65
2021/09/03 05:27:21;;;;;;;8.50;6.40;;;;;;;14.36;82.37;100847.45;95308;1180;94519;-65
2021/09/03 05:29:29;;;;;;;9.00;7.30;;;;;;;15.00;82.01;100847.90;95271;1180;78894;-65
2021/09/03 05:31:36;;;;;;;10.50;6.50;;;;;;;15.11;81.08;100848.42;95315;1180;81807;-66
2021/09/03 05:33:44;;;;;;;9.50;7.00;;;;;;;15.11;80.28;100846.00;95321;1180;99508;-65
2021/09/03 05:35:51;;;;;;;10.30;7.00;;;;;;;15.09;79.68;100843.48;95308;1180;89238;-66
2021/09/03 05:38:04;;;;;;;9.70;6.30;;;;;;;15.18;79.12;100843.77;95266;1180;92978;-63
2021/09/03 05:40:14;;;;;;;9.20;6.00;;;;;;;15.07;78.14;100842.94;95303;1180;80419;-60
2021/09/03 05:42:22;;;;;;;9.90;6.30;;;;;;;14.68;77.49;100842.80;95333;1180;81771;-63
2021/09/03 05:44:29;;;;;;;11.50;6.50;;;;;;;14.38;77.28;100843.28;95329;1180;97774;-60
2021/09/03 05:46:37;;;;;;;11.60;6.40;;;;;;;14.12;77.28;100842.23;95311;1180;86703;-60
2021/09/03 05:48:44;;;;;;;11.30;7.10;;;;;;;13.98;77.26;100840.48;95304;1180;94321;-66
2021/09/03 05:50:52;;;;;;;9.90;6.10;;;;;;;13.89;77.20;100836.02;95309;1180;78923;-65
2021/09/03 05:52:59;;;;;;;8.90;6.00;;;;;;;13.91;77.04;100832.92;95327;1181;80663;-65
2021/09/03 05:55:09;;;;;;;9.80;6.20;;;;;;;14.06;76.82;100827.15;95311;1180;97582;-66
2021/09/03 05:57:16;;;;;;;10.90;6.70;;;;;;;14.19;76.97;100824.74;95333;1180;87952;-66
2021/09/03 05:59:24;;;;;;;9.30;6.20;;;;;;;14.23;76.86;100821.54;95304;1180;93822;-60
2021/09/03 06:01:35;;;;;;;10.60;5.90;;;;;;;14.33;76.65;100823.78;95289;1180;81569;-60
2021/09/03 06:03:42;;;;;;;10.20;6.60;;;;;;;14.57;76.41;100821.61;95318;1180;80579;-60
2021/09/03 06:05:53;;;;;;;11.50;6.40;;;;;;;14.84;76.48;100819.12;95312;1180;98789;-60
2021/09/03 06:08:01;;;;;;;9.00;5.60;;;;;;;14.97;76.52;100819.65;95294;1180;87405;-64
2021/09/03 06:10:11;;;;;;;9.00;5.30;;;;;;;14.99;76.39;100818.19;95314;1180;94085;-66
2021/09/03 06:12:19;;;;;;;9.20;5.70;;;;;;;15.04;76.40;100822.38;95301;1180;78218;-66
2021/09/03 06:14:26;;;;;;;9.70;5.90;;;;;;;15.03;76.18;100814.13;95311;1180;80530;-60
2021/09/03 06:16:34;;;;;;;8.70;5.70;;;;;;;15.00;76.00;100812.23;95302;1180;97450;-60
2021/09/03 06:18:42;;;;;;;7.90;5.80;;;;;;;15.01;75.98;100807.93;95326;1180;88065;-65
2021/09/03 06:20:49;;;;;;;8.40;5.80;;;;;;;15.02;75.89;100809.05;95309;1180;93794;-64
2021/09/03 06:23:00;;;;;;;7.20;4.80;;;;;;;14.99;75.72;100807.84;95297;1180;78955;-62
2021/09/03 06:25:10;;;;;;;9.40;5.40;;;;;;;14.95;75.79;100808.05;95173;1182;81262;-66
2021/09/03 06:27:17;;;;;;;10.80;5.20;;;;;;;14.95;75.79;100806.25;95185;1182;98857;-66
2021/09/03 06:29:38;;;;;;;9.50;5.20;;;;;;;14.99;75.83;100807.26;95176;1181;87683;-66
2021/09/03 06:31:45;;;;;;;7.40;5.00;;;;;;;15.14;76.10;100806.52;95157;1182;95250;-66
2021/09/03 06:33:53;;;;;;;9.10;4.90;;;;;;;15.18;75.85;100802.62;95132;1182;79347;-65
2021/09/03 06:36:00;;;;;;;6.50;4.80;;;;;;;15.18;75.77;100800.77;95156;1182;82194;-66
2021/09/03 06:38:08;;;;;;;8.20;4.90;;;;;;;15.27;75.66;100798.27;95160;1181;96663;-65
2021/09/03 06:40:16;;;;;;;12.00;5.30;;;;;;;15.33;75.76;100798.52;95170;1182;86729;-60
2021/09/03 06:42:28;;;;;;;9.10;4.90;;;;;;;15.37;75.61;100791.85;95155;1184;94017;-61
2021/09/03 06:44:37;;;;;;;6.80;4.50;;;;;;;15.43;75.51;100790.51;95164;1181;80293;-60
2021/09/03 06:46:44;;;;;;;10.30;5.00;;;;;;;15.58;75.31;100788.80;95142;1181;83035;-61
2021/09/03 06:48:52;;;;;;;7.90;5.20;;;;;;;15.61;75.09;100787.52;95145;1181;99420;-64
2021/09/03 06:51:00;;;;;;;6.90;4.50;;;;;;;15.66;75.10;100783.76;95200;1182;88415;-64
2021/09/03 06:53:07;;;;;;;7.40;3.80;;;;;;;15.80;75.08;100781.29;95178;1182;94566;-64
2021/09/03 06:55:15;;;;;;;8.90;4.60;;;;;;;15.88;75.03;100778.78;95152;1182;77868;-64
2021/09/03 06:57:23;;;;;;;7.70;4.10;;;;;;;15.96;74.83;100773.21;95156;1182;80383;-64
2021/09/03 06:59:31;;;;;;;8.00;4.70;;;;;;;16.00;74.61;100770.83;95152;1182;98515;-65
2021/09/03 07:01:38;;;;;;;7.00;4.20;;;;;;;16.07;74.50;100768.40;95179;1182;87002;-65
2021/09/03 07:03:46;;;;;;;7.80;4.20;;;;;;;16.27;74.45;100766.46;95183;1182;94500;-60
2021/09/03 07:05:53;;;;;;;7.10;3.90;;;;;;;16.49;74.14;100761.94;95163;1182;80554;-60
2021/09/03 07:08:01;;;;;;;7.20;4.10;;;;;;;16.57;73.91;100762.64;95166;1182;81540;-61
2021/09/03 07:10:11;;;;;;;6.60;3.50;;;;;;;16.63;73.65;100759.23;95194;1182;99359;-60
2021/09/03 07:12:19;;;;;;;6.80;4.00;;;;;;;16.68;73.60;100764.55;95212;1182;86968;-60
2021/09/03 07:14:26;;;;;;;7.30;3.90;;;;;;;16.71;73.40;100760.65;95148;1182;94082;-60
2021/09/03 07:16:34;;;;;;;7.50;4.00;;;;;;;16.74;73.38;100762.30;95149;1182;79884;-60
2021/09/03 07:18:42;;;;;;;5.70;3.70;;;;;;;16.82;73.14;100764.27;95196;1184;81658;-60
2021/09/03 07:20:49;;;;;;;5.00;3.70;;;;;;;16.92;72.98;100768.65;95150;1181;98831;-60
2021/09/03 07:23:00;;;;;;;4.90;3.90;;;;;;;17.03;72.94;100768.55;95174;1182;87582;-61
2021/09/03 07:25:10;;;;;;;7.00;4.40;;;;;;;17.15;72.66;100765.27;95333;1180;92035;-65
2021/09/03 07:27:18;;;;;;;6.90;3.50;;;;;;;17.26;72.62;100767.90;95323;1180;77776;-65
2021/09/03 07:29:25;;;;;;;7.40;3.80;;;;;;;17.35;72.26;100763.56;95312;1180;82178;-63
2021/09/03 07:31:34;;;;;;;7.50;3.30;;;;;;;17.43;72.22;100763.54;95314;1180;98325;-64
2021/09/03 07:33:41;;;;;;;5.50;3.30;;;;;;;17.52;72.15;100760.17;95320;1180;87661;-60
2021/09/03 07:35:49;;;;;;;5.60;3.30;;;;;;;17.63;72.10;100757.30;95325;1180;93732;-61
2021/09/03 07:38:00;;;;;;;6.10;3.00;;;;;;;17.85;71.81;100748.52;95271;1180;79781;-64
2021/09/03 07:40:14;;;;;;;7.10;3.70;;;;;;;18.23;71.46;100746.37;95334;1180;79889;-60
2021/09/03 07:42:21;;;;;;;6.30;2.90;;;;;;;18.57;70.84;100740.48;95321;1180;98712;-60
2021/09/03 07:44:29;;;;;;;5.10;3.00;;;;;;;18.70;70.55;100736.58;95339;1180;86633;-60
2021/09/03 07:46:36;;;;;;;4.30;3.00;;;;;;;18.74;70.09;100732.67;95306;1180;92322;-60
2021/09/03 07:48:44;;;;;;;8.00;2.90;;;;;;;18.86;69.86;100730.95;95338;1180;79359;-60
2021/09/03 07:50:55;;;;;;;6.10;2.90;;;;;;;19.27;69.65;100729.60;95302;1180;82026;-60
2021/09/03 07:53:03;;;;;;;5.20;2.80;;;;;;;19.55;68.41;100734.55;95268;1180;98696;-63
2021/09/03 07:55:15;;;;;;;5.90;2.70;;;;;;;19.86;68.18;100727.19;95336;1180;86293;-64
2021/09/03 07:57:22;;;;;;;3.40;2.40;;;;;;;20.55;67.50;100715.89;95291;1180;93439;-64
2021/09/03 07:59:30;;;;;;;4.40;2.60;;;;;;;22.02;66.90;100712.95;95320;1180;78189;-64
2021/09/03 08:01:40;;;;;;;7.70;2.90;;;;;;;23.16;64.84;100711.94;95308;1180;81185;-64
2021/09/03 08:03:47;;;;;;;4.90;2.60;;;;;;;23.72;63.59;100713.54;95315;1180;98366;-66
2021/09/03 08:05:55;;;;;;;5.20;2.40;;;;;;;25.02;62.80;100705.73;95325;1180;87382;-66
2021/09/03 08:08:06;;;;;;;3.70;2.70;;;;;;;26.45;61.52;100705.82;95308;1180;94641;-64
2021/09/03 08:10:16;;;;;;;3.40;2.20;;;;;;;27.63;59.24;100706.08;95324;1180;78525;-65
2021/09/03 08:12:24;;;;;;;4.10;2.60;;;;;;;28.37;57.40;100701.89;95284;1180;82377;-66
2021/09/03 08:14:32;;;;;;;4.20;2.40;;;;;;;29.17;55.93;100690.95;95301;1180;98896;-64
2021/09/03 08:16:40;;;;;;;3.50;2.20;;;;;;;29.62;54.25;100692.08;95309;1180;87234;-64
2021/09/03 08:18:48;;;;;;;2.90;1.90;;;;;;;30.28;53.13;100693.27;95284;1180;93462;-60
2021/09/03 08:20:56;;;;;;;4.60;2.20;;;;;;;30.58;51.62;100689.71;95294;1180;79888;-60
2021/09/03 08:23:05;;;;;;;3.30;2.00;;;;;;;30.92;50.37;100692.35;95330;1180;81490;-64
2021/09/03 08:25:13;;;;;;;4.30;2.30;;;;;;;31.14;49.40;100690.00;95167;1182;98798;-64
2021/09/03 08:27:21;;;;;;;3.80;2.10;;;;;;;31.36;48.15;100693.66;95154;1182;88045;-64
2021/09/03 08:29:32;;;;;;;2.70;1.80;;;;;;;31.67;47.07;100685.50;95163;1184;92811;-66
2021/09/03 08:31:39;;;;;;;2.60;2.10;;;;;;;31.92;45.45;100687.92;95170;1182;79596;-72
2021/09/03 08:33:47;;;;;;;4.40;2.20;;;;;;;32.00;44.97;100685.48;95215;1184;81038;-71
2021/09/03 08:35:55;;;;;;;4.10;2.00;;;;;;;32.16;43.85;100682.75;95194;1181;98879;-74
2021/09/03 08:38:02;;;;;;;4.40;2.00;;;;;;;32.28;42.80;100682.11;95233;1181;88036;-70
2021/09/03 08:40:13;;;;;;;3.00;1.90;;;;;;;32.13;41.98;100679.75;95174;1182;92780;-71
2021/09/03 08:42:24;;;;;;;2.50;2.00;;;;;;;32.29;41.83;100671.25;95173;1184;79306;-71
2021/09/03 08:44:34;;;;;;;3.80;2.00;;;;;;;32.22;40.99;100662.16;95204;1184;81617;-74
2021/09/03 08:46:44;;;;;;;3.30;2.00;;;;;;;32.20;40.57;100659.45;95197;1182;97460;-71
2021/09/03 08:48:52;;;;;;;2.70;2.00;;;;;;;32.11;40.28;100657.45;95247;1182;87127;-74
2021/09/03 08:51:00;;;;;;;3.10;1.80;;;;;;;32.07;39.88;100656.52;95191;1182;93827;-74
2021/09/03 08:53:07;;;;;;;3.10;2.10;;;;;;;32.03;39.91;100654.04;95179;1181;80612;-72
2021/09/03 08:55:17;;;;;;;2.10;1.60;;;;;;;32.07;39.60;100646.21;95200;1182;81511;-72
2021/09/03 08:57:24;;;;;;;2.50;1.70;;;;;;;31.86;38.55;100645.65;95171;1182;98323;-71
2021/09/03 08:59:32;;;;;;;2.40;1.60;;;;;;;31.96;38.68;100644.14;95204;1182;86521;-73
2021/09/03 09:01:43;;;;;;;2.80;1.60;;;;;;;31.75;38.89;100640.95;95221;1182;94130;-72
2021/09/03 09:03:52;;;;;;;2.30;1.60;;;;;;;31.87;38.66;100634.11;95204;1184;79504;-76
2021/09/03 09:06:03;;;;;;;4.10;1.70;;;;;;;32.29;38.61;100633.73;95215;1184;82142;-75
2021/09/03 09:08:11;;;;;;;1.80;1.60;;;;;;;32.33;37.79;100622.27;95219;1183;98012;-72
2021/09/03 09:10:27;;;;;;;2.00;1.30;;;;;;;32.30;37.24;100621.40;95206;1184;88679;-74
2021/09/03 09:12:34;;;;;;;2.10;1.60;;;;;;;31.98;36.91;100618.13;95178;1181;93876;-74
2021/09/03 09:15:08;;;;;;;3.20;1.70;;;;;;;31.89;37.18;100619.13;95217;1181;79736;-72
2021/09/03 09:17:29;;;;;;;2.70;1.40;;;;;;;31.94;37.35;100618.74;95218;1184;81836;-71
2021/09/03 09:19:48;;;;;;;2.20;1.40;;;;;;;31.99;37.32;100616.42;95207;1182;97164;-73
2021/09/03 09:22:02;;;;;;;1.60;1.30;;;;;;;32.02;37.09;100615.00;95197;1184;87467;-73
2021/09/03 09:24:12;;;;;;;1.90;1.20;;;;;;;31.75;36.59;100618.49;95277;1180;93885;-72
2021/09/03 09:26:21;;;;;;;2.80;1.30;;;;;;;31.31;36.26;100618.13;95315;1180;78099;-73
2021/09/03 09:28:33;;;;;;;3.00;1.40;;;;;;;31.11;36.88;100612.83;95342;1180;82744;-72
2021/09/03 09:30:44;;;;;;;2.10;1.50;;;;;;;31.00;37.26;100606.88;95329;1180;97587;-72
2021/09/03 09:33:18;;;;;;;3.20;1.50;;;;;;;30.94;36.18;100602.39;95311;1180;87537;-72
2021/09/03 09:35:25;;;;;;;1.60;1.20;;;;;;;30.83;36.37;100592.33;95305;1180;93501;-72
2021/09/03 09:37:33;;;;;;;2.20;1.30;;;;;;;30.50;36.70;100592.00;95295;1180;79488;-72
2021/09/03 09:39:49;;;;;;;2.30;1.20;;;;;;;30.04;36.82;100595.09;95274;1180;82351;-74
2021/09/03 09:42:05;;;;;;;1.80;1.30;;;;;;;29.41;36.93;100588.59;95314;1180;98472;-74
2021/09/03 09:44:13;;;;;;;2.90;1.00;;;;;;;28.95;37.38;100595.47;95323;1180;86892;-74
2021/09/03 09:46:29;;;;;;;4.50;1.50;;;;;;;28.40;37.96;100590.61;95305;1180;92567;-73
2021/09/03 09:49:04;;;;;;;3.00;1.30;;;;;;;28.01;39.38;100591.36;95335;1180;79622;-73
2021/09/03 09:51:12;;;;;;;2.60;2.00;;;;;;;27.72;39.37;100586.92;95350;1180;83222;-71
2021/09/03 09:53:20;;;;;;;5.00;1.60;;;;;;;27.31;39.47;100582.65;95326;1180;98287;-72
2021/09/03 09:55:28;;;;;;;4.10;1.90;;;;;;;26.84;39.88;100578.30;95302;1180;87554;-72
2021/09/03 09:57:37;;;;;;;3.00;1.80;;;;;;;26.34;40.36;100572.49;95283;1180;94737;-72
2021/09/03 09:59:45;;;;;;;3.30;1.50;;;;;;;26.08;40.95;100570.31;95294;1180;80142;-72
2021/09/03 10:01:55;;;;;;;2.50;1.80;;;;;;;25.83;41.53;100564.90;95331;1180;82033;-71